sensor_id;sensor_type;location;lat;lon;timestamp;pressure;altitude;pressure_sealevel;temperature;humidity
5550;BME280;2798;42.716;23.256;2023-11-19T00:00:09;94688.44;;;6.37;65.24
5550;BME280;2798;42.716;23.256;2023-11-19T00:02:38;94682.53;;;6.36;65.48
5550;BME280;2798;42.716;23.256;2023-11-19T00:05:03;94703.97;;;6.34;65.15
5550;BME280;2798;42.716;23.256;2023-11-19T00:07:29;94693.66;;;6.35;65.04
5550;BME280;2798;42.716;23.256;2023-11-19T00:09:54;94708.09;;;6.36;65.21
5550;BME280;2798;42.716;23.256;2023-11-19T00:12:20;94683.34;;;6.37;65.00
5550;BME280;2798;42.716;23.256;2023-11-19T00:14:45;94677.59;;;6.33;64.84
5550;BME280;2798;42.716;23.256;2023-11-19T00:17:10;94686.16;;;6.32;65.10
5550;BME280;2798;42.716;23.256;2023-11-19T00:19:36;94679.31;;;6.33;65.31
5550;BME280;2798;42.716;23.256;2023-11-19T00:22:01;94684.34;;;6.34;64.84
5550;BME280;2798;42.716;23.256;2023-11-19T00:24:28;94689.47;;;6.34;65.10
5550;BME280;2798;42.716;23.256;2023-11-19T00:26:53;94683.53;;;6.34;65.27
5550;BME280;2798;42.716;23.256;2023-11-19T00:29:18;94691.94;;;6.36;64.86
5550;BME280;2798;42.716;23.256;2023-11-19T00:31:45;94678.41;;;6.34;64.45
5550;BME280;2798;42.716;23.256;2023-11-19T00:34:10;94696.28;;;6.34;64.69
5550;BME280;2798;42.716;23.256;2023-11-19T00:36:36;94685.28;;;6.33;65.24
5550;BME280;2798;42.716;23.256;2023-11-19T00:39:01;94701.50;;;6.32;64.70
5550;BME280;2798;42.716;23.256;2023-11-19T00:41:26;94720.13;;;6.34;64.87
5550;BME280;2798;42.716;23.256;2023-11-19T00:43:51;94708.28;;;6.33;64.79
5550;BME280;2798;42.716;23.256;2023-11-19T00:46:17;94709.00;;;6.35;64.93
5550;BME280;2798;42.716;23.256;2023-11-19T00:48:42;94691.19;;;6.34;65.18
5550;BME280;2798;42.716;23.256;2023-11-19T00:51:07;94694.56;;;6.34;65.15
5550;BME280;2798;42.716;23.256;2023-11-19T00:53:33;94701.41;;;6.34;64.47
5550;BME280;2798;42.716;23.256;2023-11-19T00:55:59;94684.44;;;6.33;64.77
5550;BME280;2798;42.716;23.256;2023-11-19T00:58:24;94699.94;;;6.29;65.13
5550;BME280;2798;42.716;23.256;2023-11-19T01:00:49;94704.13;;;6.30;65.40
5550;BME280;2798;42.716;23.256;2023-11-19T01:03:15;94707.63;;;6.29;64.61
5550;BME280;2798;42.716;23.256;2023-11-19T01:05:43;94694.84;;;6.29;65.64
5550;BME280;2798;42.716;23.256;2023-11-19T01:08:09;94709.34;;;6.29;65.01
5550;BME280;2798;42.716;23.256;2023-11-19T01:10:36;94739.19;;;6.28;64.89
5550;BME280;2798;42.716;23.256;2023-11-19T01:13:01;94708.63;;;6.27;64.88
5550;BME280;2798;42.716;23.256;2023-11-19T01:15:28;94701.22;;;6.22;65.24
5550;BME280;2798;42.716;23.256;2023-11-19T01:17:54;94721.56;;;6.24;65.33
5550;BME280;2798;42.716;23.256;2023-11-19T01:20:19;94698.56;;;6.24;65.47
5550;BME280;2798;42.716;23.256;2023-11-19T01:22:45;94700.22;;;6.25;64.88
5550;BME280;2798;42.716;23.256;2023-11-19T01:25:10;94707.88;;;6.25;65.02
5550;BME280;2798;42.716;23.256;2023-11-19T01:27:35;94710.50;;;6.23;65.11
5550;BME280;2798;42.716;23.256;2023-11-19T01:30:01;94708.78;;;6.24;65.11
5550;BME280;2798;42.716;23.256;2023-11-19T01:32:30;94718.09;;;6.25;64.95
5550;BME280;2798;42.716;23.256;2023-11-19T01:34:56;94746.13;;;6.26;65.29
5550;BME280;2798;42.716;23.256;2023-11-19T01:37:21;94724.75;;;6.27;64.81
5550;BME280;2798;42.716;23.256;2023-11-19T01:39:46;94724.75;;;6.27;65.49
5550;BME280;2798;42.716;23.256;2023-11-19T01:42:12;94723.78;;;6.30;65.05
5550;BME280;2798;42.716;23.256;2023-11-19T01:44:38;94750.97;;;6.31;64.94
5550;BME280;2798;42.716;23.256;2023-11-19T01:47:03;94751.91;;;6.30;64.96
5550;BME280;2798;42.716;23.256;2023-11-19T01:49:30;94736.56;;;6.30;64.86
5550;BME280;2798;42.716;23.256;2023-11-19T01:51:55;94745.03;;;6.30;64.66
5550;BME280;2798;42.716;23.256;2023-11-19T01:54:22;94735.66;;;6.31;65.19
5550;BME280;2798;42.716;23.256;2023-11-19T01:56:47;94741.75;;;6.28;64.96
5550;BME280;2798;42.716;23.256;2023-11-19T01:59:13;94728.91;;;6.30;64.49
5550;BME280;2798;42.716;23.256;2023-11-19T02:01:39;94722.88;;;6.31;64.33
5550;BME280;2798;42.716;23.256;2023-11-19T02:04:08;94724.50;;;6.32;64.29
5550;BME280;2798;42.716;23.256;2023-11-19T02:06:34;94733.91;;;6.32;64.09
5550;BME280;2798;42.716;23.256;2023-11-19T02:09:01;94727.13;;;6.30;64.29
5550;BME280;2798;42.716;23.256;2023-11-19T02:11:28;94717.00;;;6.29;64.12
5550;BME280;2798;42.716;23.256;2023-11-19T02:13:55;94717.75;;;6.31;64.40
5550;BME280;2798;42.716;23.256;2023-11-19T02:16:20;94729.69;;;6.30;64.42
5550;BME280;2798;42.716;23.256;2023-11-19T02:18:46;94726.34;;;6.30;64.08
5550;BME280;2798;42.716;23.256;2023-11-19T02:21:11;94723.88;;;6.28;63.89
5550;BME280;2798;42.716;23.256;2023-11-19T02:23:36;94719.66;;;6.27;63.88
5550;BME280;2798;42.716;23.256;2023-11-19T02:28:36;94729.97;;;6.26;64.18
5550;BME280;2798;42.716;23.256;2023-11-19T02:31:02;94706.25;;;6.24;64.27
5550;BME280;2798;42.716;23.256;2023-11-19T02:33:29;94700.47;;;6.20;64.49
5550;BME280;2798;42.716;23.256;2023-11-19T02:35:55;94703.91;;;6.19;64.38
5550;BME280;2798;42.716;23.256;2023-11-19T02:38:20;94692.06;;;6.18;63.85
5550;BME280;2798;42.716;23.256;2023-11-19T02:40:47;94699.72;;;6.18;63.49
5550;BME280;2798;42.716;23.256;2023-11-19T02:43:12;94706.56;;;6.17;63.91
5550;BME280;2798;42.716;23.256;2023-11-19T02:45:38;94706.63;;;6.16;64.12
5550;BME280;2798;42.716;23.256;2023-11-19T02:48:03;94707.56;;;6.15;64.01
5550;BME280;2798;42.716;23.256;2023-11-19T02:50:31;94733.09;;;6.15;64.06
5550;BME280;2798;42.716;23.256;2023-11-19T02:52:57;94713.59;;;6.14;63.54
5550;BME280;2798;42.716;23.256;2023-11-19T02:55:22;94725.53;;;6.13;64.35
5550;BME280;2798;42.716;23.256;2023-11-19T02:57:49;94705.16;;;6.12;63.68
5550;BME280;2798;42.716;23.256;2023-11-19T03:00:21;94712.16;;;6.08;64.68
5550;BME280;2798;42.716;23.256;2023-11-19T03:02:56;94701.16;;;6.08;64.37
5550;BME280;2798;42.716;23.256;2023-11-19T03:05:25;94714.72;;;6.08;64.47
5550;BME280;2798;42.716;23.256;2023-11-19T03:07:51;94706.34;;;6.06;64.10
5550;BME280;2798;42.716;23.256;2023-11-19T03:10:16;94721.69;;;6.06;64.19
5550;BME280;2798;42.716;23.256;2023-11-19T03:12:42;94735.34;;;6.05;64.53
5550;BME280;2798;42.716;23.256;2023-11-19T03:15:08;94730.28;;;6.03;64.36
5550;BME280;2798;42.716;23.256;2023-11-19T03:17:40;94743.13;;;6.02;63.79
5550;BME280;2798;42.716;23.256;2023-11-19T03:20:07;94733.00;;;6.00;63.74
5550;BME280;2798;42.716;23.256;2023-11-19T03:22:39;94744.16;;;5.99;63.98
5550;BME280;2798;42.716;23.256;2023-11-19T03:25:06;94739.84;;;6.00;63.84
5550;BME280;2798;42.716;23.256;2023-11-19T03:27:34;94738.13;;;6.00;63.99
5550;BME280;2798;42.716;23.256;2023-11-19T03:30:00;94736.47;;;5.99;63.75
5550;BME280;2798;42.716;23.256;2023-11-19T03:32:26;94748.41;;;5.99;64.04
5550;BME280;2798;42.716;23.256;2023-11-19T03:34:51;94745.88;;;5.99;63.67
5550;BME280;2798;42.716;23.256;2023-11-19T03:37:17;94765.47;;;5.98;64.19
5550;BME280;2798;42.716;23.256;2023-11-19T03:39:42;94751.88;;;5.98;64.07
5550;BME280;2798;42.716;23.256;2023-11-19T03:42:07;94757.16;;;5.94;63.98
5550;BME280;2798;42.716;23.256;2023-11-19T03:44:33;94754.53;;;5.96;63.94
5550;BME280;2798;42.716;23.256;2023-11-19T03:46:58;94769.78;;;5.98;64.56
5550;BME280;2798;42.716;23.256;2023-11-19T03:49:23;94775.59;;;6.00;64.18
5550;BME280;2798;42.716;23.256;2023-11-19T03:51:49;94773.78;;;6.02;64.32
5550;BME280;2798;42.716;23.256;2023-11-19T03:54:14;94789.03;;;6.03;64.42
5550;BME280;2798;42.716;23.256;2023-11-19T03:56:40;94778.78;;;6.05;64.52
5550;BME280;2798;42.716;23.256;2023-11-19T03:59:05;94777.06;;;6.05;64.20
5550;BME280;2798;42.716;23.256;2023-11-19T04:01:30;94768.56;;;6.05;64.24
5550;BME280;2798;42.716;23.256;2023-11-19T04:03:57;94770.22;;;6.06;64.02
5550;BME280;2798;42.716;23.256;2023-11-19T04:06:22;94773.56;;;6.06;64.19
5550;BME280;2798;42.716;23.256;2023-11-19T04:08:48;94770.06;;;6.09;64.03
5550;BME280;2798;42.716;23.256;2023-11-19T04:11:13;94782.00;;;6.09;64.60
5550;BME280;2798;42.716;23.256;2023-11-19T04:13:38;94802.34;;;6.10;64.19
5550;BME280;2798;42.716;23.256;2023-11-19T04:16:04;94785.31;;;6.11;64.07
5550;BME280;2798;42.716;23.256;2023-11-19T04:18:29;94789.50;;;6.12;64.00
5550;BME280;2798;42.716;23.256;2023-11-19T04:20:54;94797.16;;;6.12;63.58
5550;BME280;2798;42.716;23.256;2023-11-19T04:23:20;94780.03;;;6.14;63.94
5550;BME280;2798;42.716;23.256;2023-11-19T04:25:45;94779.94;;;6.15;64.10
5550;BME280;2798;42.716;23.256;2023-11-19T04:28:11;94779.78;;;6.18;64.01
5550;BME280;2798;42.716;23.256;2023-11-19T04:30:36;94786.69;;;6.16;64.20
5550;BME280;2798;42.716;23.256;2023-11-19T04:33:02;94790.06;;;6.17;64.04
5550;BME280;2798;42.716;23.256;2023-11-19T04:35:28;94789.25;;;6.16;63.69
5550;BME280;2798;42.716;23.256;2023-11-19T04:37:53;94792.63;;;6.17;64.12
5550;BME280;2798;42.716;23.256;2023-11-19T04:40:18;94790.88;;;6.17;64.38
5550;BME280;2798;42.716;23.256;2023-11-19T04:42:44;94812.16;;;6.18;63.28
5550;BME280;2798;42.716;23.256;2023-11-19T04:45:10;94792.56;;;6.18;63.71
5550;BME280;2798;42.716;23.256;2023-11-19T04:47:35;94785.78;;;6.17;63.84
5550;BME280;2798;42.716;23.256;2023-11-19T04:50:01;94783.22;;;6.17;63.41
5550;BME280;2798;42.716;23.256;2023-11-19T04:52:27;94789.16;;;6.18;63.84
5550;BME280;2798;42.716;23.256;2023-11-19T04:54:52;94782.31;;;6.18;63.24
5550;BME280;2798;42.716;23.256;2023-11-19T04:57:17;94782.25;;;6.20;63.58
5550;BME280;2798;42.716;23.256;2023-11-19T04:59:43;94783.88;;;6.21;64.01
5550;BME280;2798;42.716;23.256;2023-11-19T05:02:08;94788.09;;;6.22;63.88
5550;BME280;2798;42.716;23.256;2023-11-19T05:04:34;94805.91;;;6.24;64.06
5550;BME280;2798;42.716;23.256;2023-11-19T05:07:00;94824.59;;;6.24;64.06
5550;BME280;2798;42.716;23.256;2023-11-19T05:09:25;94829.63;;;6.26;64.11
5550;BME280;2798;42.716;23.256;2023-11-19T05:11:50;94822.81;;;6.26;63.83
5550;BME280;2798;42.716;23.256;2023-11-19T05:14:16;94834.66;;;6.27;64.15
5550;BME280;2798;42.716;23.256;2023-11-19T05:16:41;94812.50;;;6.28;63.94
5550;BME280;2798;42.716;23.256;2023-11-19T05:19:07;94811.66;;;6.27;64.02
5550;BME280;2798;42.716;23.256;2023-11-19T05:21:34;94762.34;;;5.93;63.69
5550;BME280;2798;42.716;23.256;2023-11-19T05:23:59;94814.13;;;6.29;63.83
5550;BME280;2798;42.716;23.256;2023-11-19T05:26:24;94815.81;;;6.30;63.59
5550;BME280;2798;42.716;23.256;2023-11-19T05:28:50;94812.31;;;6.31;64.07
5550;BME280;2798;42.716;23.256;2023-11-19T05:31:16;94820.81;;;6.32;63.62
5550;BME280;2798;42.716;23.256;2023-11-19T05:33:42;94834.41;;;6.32;63.61
5550;BME280;2798;42.716;23.256;2023-11-19T05:36:07;94816.53;;;6.32;63.93
5550;BME280;2798;42.716;23.256;2023-11-19T05:38:33;94817.28;;;6.34;63.77
5550;BME280;2798;42.716;23.256;2023-11-19T05:40:58;94841.19;;;6.33;64.07
5550;BME280;2798;42.716;23.256;2023-11-19T05:43:24;94828.41;;;6.33;63.89
5550;BME280;2798;42.716;23.256;2023-11-19T05:45:49;94838.63;;;6.33;64.14
5550;BME280;2798;42.716;23.256;2023-11-19T05:48:14;94832.78;;;6.31;64.06
5550;BME280;2798;42.716;23.256;2023-11-19T05:50:39;94835.56;;;6.26;63.69
5550;BME280;2798;42.716;23.256;2023-11-19T05:53:05;94854.31;;;6.27;63.72
5550;BME280;2798;42.716;23.256;2023-11-19T05:55:34;94831.38;;;6.25;63.37
5550;BME280;2798;42.716;23.256;2023-11-19T05:58:00;94836.59;;;6.24;63.57
5550;BME280;2798;42.716;23.256;2023-11-19T06:00:25;94845.81;;;6.26;63.15
5550;BME280;2798;42.716;23.256;2023-11-19T06:02:51;94847.44;;;6.27;63.41
5550;BME280;2798;42.716;23.256;2023-11-19T06:05:16;94862.78;;;6.27;63.58
5550;BME280;2798;42.716;23.256;2023-11-19T06:07:42;94854.22;;;6.28;63.20
5550;BME280;2798;42.716;23.256;2023-11-19T06:10:07;94863.53;;;6.29;63.09
5550;BME280;2798;42.716;23.256;2023-11-19T06:12:34;94864.38;;;6.30;63.08
5550;BME280;2798;42.716;23.256;2023-11-19T06:15:03;94849.03;;;6.30;63.01
5550;BME280;2798;42.716;23.256;2023-11-19T06:17:31;94845.63;;;6.29;63.09
5550;BME280;2798;42.716;23.256;2023-11-19T06:19:57;94851.59;;;6.30;63.29
5550;BME280;2798;42.716;23.256;2023-11-19T06:22:22;94852.38;;;6.30;62.82
5550;BME280;2798;42.716;23.256;2023-11-19T06:24:47;94853.22;;;6.31;63.49
5550;BME280;2798;42.716;23.256;2023-11-19T06:27:13;94880.44;;;6.32;63.28
5550;BME280;2798;42.716;23.256;2023-11-19T06:29:38;94871.88;;;6.33;63.07
5550;BME280;2798;42.716;23.256;2023-11-19T06:32:06;94870.94;;;6.34;62.92
5550;BME280;2798;42.716;23.256;2023-11-19T06:34:31;94864.13;;;6.35;62.97
5550;BME280;2798;42.716;23.256;2023-11-19T06:36:58;94870.03;;;6.35;62.81
5550;BME280;2798;42.716;23.256;2023-11-19T06:39:23;94864.84;;;6.37;62.94
5550;BME280;2798;42.716;23.256;2023-11-19T06:41:48;94877.78;;;6.34;62.76
5550;BME280;2798;42.716;23.256;2023-11-19T06:44:14;94867.00;;;6.28;62.59
5550;BME280;2798;42.716;23.256;2023-11-19T06:46:39;94872.66;;;6.34;66.56
5550;BME280;2798;42.716;23.256;2023-11-19T06:49:05;94879.94;;;6.25;63.06
5550;BME280;2798;42.716;23.256;2023-11-19T06:51:32;94857.81;;;6.08;60.80
5550;BME280;2798;42.716;23.256;2023-11-19T06:53:57;94869.41;;;5.98;61.70
5550;BME280;2798;42.716;23.256;2023-11-19T06:56:23;94867.53;;;5.84;61.52
5550;BME280;2798;42.716;23.256;2023-11-19T06:58:49;94872.25;;;5.75;61.38
5550;BME280;2798;42.716;23.256;2023-11-19T07:01:15;94861.66;;;5.65;61.51
5550;BME280;2798;42.716;23.256;2023-11-19T07:03:40;94867.56;;;5.66;61.58
5550;BME280;2798;42.716;23.256;2023-11-19T07:06:06;94863.78;;;5.57;61.62
5550;BME280;2798;42.716;23.256;2023-11-19T07:08:31;94875.94;;;5.52;61.66
5550;BME280;2798;42.716;23.256;2023-11-19T07:10:56;94905.16;;;5.46;61.97
5550;BME280;2798;42.716;23.256;2023-11-19T07:13:21;94913.78;;;5.43;61.82
5550;BME280;2798;42.716;23.256;2023-11-19T07:15:47;94889.41;;;5.38;61.82
5550;BME280;2798;42.716;23.256;2023-11-19T07:18:12;94891.03;;;5.39;62.20
5550;BME280;2798;42.716;23.256;2023-11-19T07:20:37;94877.63;;;5.35;62.32
5550;BME280;2798;42.716;23.256;2023-11-19T07:23:03;94879.25;;;5.36;62.41
5550;BME280;2798;42.716;23.256;2023-11-19T07:25:28;94829.50;;;5.10;62.40
5550;BME280;2798;42.716;23.256;2023-11-19T07:27:54;94895.50;;;5.35;62.46
5550;BME280;2798;42.716;23.256;2023-11-19T07:30:19;94883.59;;;5.34;62.27
5550;BME280;2798;42.716;23.256;2023-11-19T07:32:44;94898.16;;;5.32;62.46
5550;BME280;2798;42.716;23.256;2023-11-19T07:35:09;94897.44;;;5.30;61.99
5550;BME280;2798;42.716;23.256;2023-11-19T07:37:35;94889.78;;;5.30;62.38
5550;BME280;2798;42.716;23.256;2023-11-19T07:40:00;94906.56;;;5.34;62.51
5550;BME280;2798;42.716;23.256;2023-11-19T07:42:25;94914.22;;;5.34;62.24
5550;BME280;2798;42.716;23.256;2023-11-19T07:44:51;94902.53;;;5.30;62.16
5550;BME280;2798;42.716;23.256;2023-11-19T07:47:16;94902.59;;;5.28;61.93
5550;BME280;2798;42.716;23.256;2023-11-19T07:49:41;94930.97;;;5.22;61.50
5550;BME280;2798;42.716;23.256;2023-11-19T07:52:08;94928.19;;;5.27;61.58
5550;BME280;2798;42.716;23.256;2023-11-19T07:54:34;94908.38;;;5.32;61.43
5550;BME280;2798;42.716;23.256;2023-11-19T07:56:59;94911.00;;;5.30;61.70
5550;BME280;2798;42.716;23.256;2023-11-19T07:59:24;94917.00;;;5.29;61.54
5550;BME280;2798;42.716;23.256;2023-11-19T08:01:50;94902.38;;;5.33;61.51
5550;BME280;2798;42.716;23.256;2023-11-19T08:04:15;94915.16;;;5.33;61.82
5550;BME280;2798;42.716;23.256;2023-11-19T08:06:40;94922.81;;;5.33;61.69
5550;BME280;2798;42.716;23.256;2023-11-19T08:09:05;94924.75;;;5.28;62.24
5550;BME280;2798;42.716;23.256;2023-11-19T08:11:31;94927.91;;;5.33;61.74
5550;BME280;2798;42.716;23.256;2023-11-19T08:13:57;94922.50;;;5.39;61.72
5550;BME280;2798;42.716;23.256;2023-11-19T08:16:22;94893.72;;;5.00;61.90
5550;BME280;2798;42.716;23.256;2023-11-19T08:18:47;94925.06;;;5.39;61.84
5550;BME280;2798;42.716;23.256;2023-11-19T08:21:13;94922.88;;;5.49;61.69
5550;BME280;2798;42.716;23.256;2023-11-19T08:23:38;94929.63;;;5.50;61.42
5550;BME280;2798;42.716;23.256;2023-11-19T08:26:04;94945.03;;;5.49;61.34
5550;BME280;2798;42.716;23.256;2023-11-19T08:28:30;94868.66;;;5.09;61.59
5550;BME280;2798;42.716;23.256;2023-11-19T08:30:56;94928.13;;;5.46;62.02
5550;BME280;2798;42.716;23.256;2023-11-19T08:33:21;94934.59;;;5.53;61.54
5550;BME280;2798;42.716;23.256;2023-11-19T08:35:47;94946.75;;;5.48;61.49
5550;BME280;2798;42.716;23.256;2023-11-19T08:38:13;94956.16;;;5.48;61.04
5550;BME280;2798;42.716;23.256;2023-11-19T08:40:38;94955.38;;;5.46;61.28
5550;BME280;2798;42.716;23.256;2023-11-19T08:43:03;94960.19;;;5.52;61.54
5550;BME280;2798;42.716;23.256;2023-11-19T08:45:29;94954.13;;;5.54;61.09
5550;BME280;2798;42.716;23.256;2023-11-19T08:47:55;94949.16;;;5.51;60.84
5550;BME280;2798;42.716;23.256;2023-11-19T08:50:20;94940.53;;;5.54;60.76
5550;BME280;2798;42.716;23.256;2023-11-19T08:52:45;94904.63;;;5.22;60.76
5550;BME280;2798;42.716;23.256;2023-11-19T08:55:11;94966.34;;;5.65;61.21
5550;BME280;2798;42.716;23.256;2023-11-19T08:57:38;94955.91;;;5.70;60.32
5550;BME280;2798;42.716;23.256;2023-11-19T09:00:04;94949.00;;;5.72;60.46
5550;BME280;2798;42.716;23.256;2023-11-19T09:02:32;94948.94;;;5.74;60.42
5550;BME280;2798;42.716;23.256;2023-11-19T09:04:58;94946.22;;;5.77;60.25
5550;BME280;2798;42.716;23.256;2023-11-19T09:07:23;94939.13;;;5.82;60.39
5550;BME280;2798;42.716;23.256;2023-11-19T09:09:48;94946.59;;;5.87;60.16
5550;BME280;2798;42.716;23.256;2023-11-19T09:12:14;94932.06;;;5.87;60.10
5550;BME280;2798;42.716;23.256;2023-11-19T09:14:39;94922.47;;;5.92;60.17
5550;BME280;2798;42.716;23.256;2023-11-19T09:17:04;94919.00;;;5.93;59.78
5550;BME280;2798;42.716;23.256;2023-11-19T09:19:32;94930.72;;;5.98;59.53
5550;BME280;2798;42.716;23.256;2023-11-19T09:21:57;94908.81;;;5.58;59.63
5550;BME280;2798;42.716;23.256;2023-11-19T09:24:22;94935.66;;;6.01;59.78
5550;BME280;2798;42.716;23.256;2023-11-19T09:26:48;94952.72;;;6.00;59.57
5550;BME280;2798;42.716;23.256;2023-11-19T09:29:13;94955.34;;;5.99;59.13
5550;BME280;2798;42.716;23.256;2023-11-19T09:31:39;94933.13;;;6.01;59.47
5550;BME280;2798;42.716;23.256;2023-11-19T09:34:04;94926.22;;;6.03;58.74
5550;BME280;2798;42.716;23.256;2023-11-19T09:36:30;94920.34;;;6.01;59.19
5550;BME280;2798;42.716;23.256;2023-11-19T09:38:56;94915.16;;;6.02;59.08
5550;BME280;2798;42.716;23.256;2023-11-19T09:41:21;94908.19;;;6.06;58.95
5550;BME280;2798;42.716;23.256;2023-11-19T09:43:47;94906.88;;;6.15;58.45
5550;BME280;2798;42.716;23.256;2023-11-19T09:46:13;94899.81;;;6.20;58.09
5550;BME280;2798;42.716;23.256;2023-11-19T09:48:40;94884.47;;;6.20;58.56
5550;BME280;2798;42.716;23.256;2023-11-19T09:51:06;94878.34;;;6.23;58.37
5550;BME280;2798;42.716;23.256;2023-11-19T09:53:32;94867.81;;;6.29;58.34
5550;BME280;2798;42.716;23.256;2023-11-19T09:55:58;94865.09;;;6.32;58.35
5550;BME280;2798;42.716;23.256;2023-11-19T09:58:25;94877.88;;;6.32;58.93
5550;BME280;2798;42.716;23.256;2023-11-19T10:00:50;94872.66;;;6.34;58.96
5550;BME280;2798;42.716;23.256;2023-11-19T10:03:17;94867.47;;;6.35;58.40
5550;BME280;2798;42.716;23.256;2023-11-19T10:05:42;94874.34;;;6.35;58.34
5550;BME280;2798;42.716;23.256;2023-11-19T10:08:07;94865.84;;;6.34;58.22
5550;BME280;2798;42.716;23.256;2023-11-19T10:10:33;94866.50;;;6.38;58.47
5550;BME280;2798;42.716;23.256;2023-11-19T10:12:59;94877.41;;;6.41;58.84
5550;BME280;2798;42.716;23.256;2023-11-19T10:15:26;94870.44;;;6.43;58.21
5550;BME280;2798;42.716;23.256;2023-11-19T10:17:55;94882.19;;;6.48;58.64
5550;BME280;2798;42.716;23.256;2023-11-19T10:20:20;94888.84;;;6.50;57.66
5550;BME280;2798;42.716;23.256;2023-11-19T10:22:46;94884.56;;;6.51;57.56
5550;BME280;2798;42.716;23.256;2023-11-19T10:25:24;94881.00;;;6.53;57.62
5550;BME280;2798;42.716;23.256;2023-11-19T10:27:53;94871.53;;;6.55;57.86
5550;BME280;2798;42.716;23.256;2023-11-19T10:32:57;94853.13;;;6.65;57.50
5550;BME280;2798;42.716;23.256;2023-11-19T10:35:27;94848.59;;;6.70;57.63
5550;BME280;2798;42.716;23.256;2023-11-19T10:37:52;94870.44;;;6.76;56.87
5550;BME280;2798;42.716;23.256;2023-11-19T10:40:18;94857.31;;;6.82;56.93
5550;BME280;2798;42.716;23.256;2023-11-19T10:42:43;94887.03;;;6.85;56.25
5550;BME280;2798;42.716;23.256;2023-11-19T10:45:26;94874.06;;;6.88;56.50
5550;BME280;2798;42.716;23.256;2023-11-19T10:47:52;94872.16;;;6.91;55.63
5550;BME280;2798;42.716;23.256;2023-11-19T10:50:17;94868.69;;;6.92;56.45
5550;BME280;2798;42.716;23.256;2023-11-19T10:52:43;94872.09;;;6.93;55.79
5550;BME280;2798;42.716;23.256;2023-11-19T10:55:09;94867.59;;;6.97;56.25
5550;BME280;2798;42.716;23.256;2023-11-19T10:57:36;94870.91;;;6.99;56.35
5550;BME280;2798;42.716;23.256;2023-11-19T11:00:02;94861.50;;;6.99;55.47
5550;BME280;2798;42.716;23.256;2023-11-19T11:02:35;94881.81;;;7.02;55.85
5550;BME280;2798;42.716;23.256;2023-11-19T11:05:03;94811.44;;;6.79;55.34
5550;BME280;2798;42.716;23.256;2023-11-19T11:07:30;94841.50;;;7.06;56.10
5550;BME280;2798;42.716;23.256;2023-11-19T11:09:56;94838.69;;;7.11;55.69
5550;BME280;2798;42.716;23.256;2023-11-19T11:12:22;94833.31;;;7.15;55.75
5550;BME280;2798;42.716;23.256;2023-11-19T11:14:48;94847.38;;;7.23;54.97
5550;BME280;2798;42.716;23.256;2023-11-19T11:17:15;94816.50;;;7.26;55.26
5550;BME280;2798;42.716;23.256;2023-11-19T11:19:42;94812.94;;;7.28;54.42
5550;BME280;2798;42.716;23.256;2023-11-19T11:22:08;94823.91;;;7.30;55.00
5550;BME280;2798;42.716;23.256;2023-11-19T11:24:54;94818.50;;;7.35;54.51
5550;BME280;2798;42.716;23.256;2023-11-19T11:29:59;94806.94;;;7.44;55.01
5550;BME280;2798;42.716;23.256;2023-11-19T11:39:53;94808.66;;;7.58;54.75
5550;BME280;2798;42.716;23.256;2023-11-19T11:50:07;94774.09;;;7.65;54.18
5550;BME280;2798;42.716;23.256;2023-11-19T11:52:33;94783.50;;;7.94;53.37
5550;BME280;2798;42.716;23.256;2023-11-19T11:55:04;94786.78;;;7.96;52.75
5550;BME280;2798;42.716;23.256;2023-11-19T11:57:33;94793.56;;;7.97;53.67
5550;BME280;2798;42.716;23.256;2023-11-19T12:00:01;94793.91;;;8.06;53.27
5550;BME280;2798;42.716;23.256;2023-11-19T12:02:30;94790.06;;;7.98;53.12
5550;BME280;2798;42.716;23.256;2023-11-19T12:04:55;94791.28;;;7.93;53.15
5550;BME280;2798;42.716;23.256;2023-11-19T12:07:22;94789.59;;;7.91;53.28
5550;BME280;2798;42.716;23.256;2023-11-19T12:10:08;94782.84;;;7.90;52.86
5550;BME280;2798;42.716;23.256;2023-11-19T12:12:33;94772.50;;;7.92;52.97
5550;BME280;2798;42.716;23.256;2023-11-19T12:15:01;94768.22;;;7.93;53.09
5550;BME280;2798;42.716;23.256;2023-11-19T12:20:01;94768.75;;;7.98;52.73
5550;BME280;2798;42.716;23.256;2023-11-19T12:22:27;94761.06;;;7.98;53.66
5550;BME280;2798;42.716;23.256;2023-11-19T12:24:55;94749.91;;;7.99;53.74
5550;BME280;2798;42.716;23.256;2023-11-19T12:27:21;94749.91;;;7.99;53.58
5550;BME280;2798;42.716;23.256;2023-11-19T12:29:49;94752.56;;;7.97;53.53
5550;BME280;2798;42.716;23.256;2023-11-19T12:32:15;94751.63;;;7.98;53.80
5550;BME280;2798;42.716;23.256;2023-11-19T12:34:41;94743.03;;;7.99;54.25
5550;BME280;2798;42.716;23.256;2023-11-19T12:37:06;94759.13;;;8.01;53.73
5550;BME280;2798;42.716;23.256;2023-11-19T12:39:33;94753.91;;;8.03;53.24
5550;BME280;2798;42.716;23.256;2023-11-19T12:41:59;94737.44;;;8.07;54.26
5550;BME280;2798;42.716;23.256;2023-11-19T12:44:24;94740.38;;;8.01;53.75
5550;BME280;2798;42.716;23.256;2023-11-19T12:49:25;94739.63;;;7.99;53.54
5550;BME280;2798;42.716;23.256;2023-11-19T12:51:50;94733.78;;;7.97;54.23
5550;BME280;2798;42.716;23.256;2023-11-19T12:54:16;94745.06;;;7.94;54.05
5550;BME280;2798;42.716;23.256;2023-11-19T12:56:51;94735.72;;;7.93;53.91
5550;BME280;2798;42.716;23.256;2023-11-19T12:59:16;94730.66;;;7.91;54.82
5550;BME280;2798;42.716;23.256;2023-11-19T13:01:42;94724.34;;;7.97;54.10
5550;BME280;2798;42.716;23.256;2023-11-19T13:04:18;94720.16;;;7.96;54.50
5550;BME280;2798;42.716;23.256;2023-11-19T13:06:47;94715.94;;;7.95;53.83
5550;BME280;2798;42.716;23.256;2023-11-19T13:09:22;94722.09;;;7.93;53.81
5550;BME280;2798;42.716;23.256;2023-11-19T13:11:49;94716.97;;;7.93;53.95
5550;BME280;2798;42.716;23.256;2023-11-19T13:14:14;94721.06;;;7.95;54.70
5550;BME280;2798;42.716;23.256;2023-11-19T13:16:39;94714.84;;;7.99;54.10
5550;BME280;2798;42.716;23.256;2023-11-19T13:19:23;94709.53;;;8.02;54.64
5550;BME280;2798;42.716;23.256;2023-11-19T13:21:49;94699.28;;;8.02;54.10
5550;BME280;2798;42.716;23.256;2023-11-19T13:24:15;94695.69;;;8.05;54.44
5550;BME280;2798;42.716;23.256;2023-11-19T13:26:40;94696.41;;;8.07;54.49
5550;BME280;2798;42.716;23.256;2023-11-19T13:29:05;94695.19;;;8.13;54.35
5550;BME280;2798;42.716;23.256;2023-11-19T13:31:30;94696.38;;;8.22;60.01
5550;BME280;2798;42.716;23.256;2023-11-19T13:33:56;94699.28;;;8.30;59.78
5550;BME280;2798;42.716;23.256;2023-11-19T13:36:23;94698.78;;;8.38;59.28
5550;BME280;2798;42.716;23.256;2023-11-19T13:38:48;94696.44;;;8.48;58.81
5550;BME280;2798;42.716;23.256;2023-11-19T13:41:13;94697.59;;;8.57;56.99
5550;BME280;2798;42.716;23.256;2023-11-19T13:43:39;94701.72;;;8.59;56.04